Time;durP1;ratioP1;P1;durP2;ratioP2;P2;SDS_P1;SDS_P2;PMS_P1;PMS_P2;Temp;Humidity;BMP_temperature;BMP_pressure;BME280_temperature;BME280_humidity;BME280_pressure;Samples;Min_cycle;Max_cycle;Signal;HPM_P1;HPM_P2
2022/10/22 00:00:13;;;;;;;35.35;20.43;;;;;;;7.33;100.00;97941.39;1759793;81;20907;-79
2022/10/22 00:02:41;;;;;;;31.95;21.17;;;;;;;7.21;100.00;97933.52;1759404;81;21446;-81
2022/10/22 00:05:07;;;;;;;44.50;24.30;;;;;;;7.11;100.00;97927.26;1733861;82;21119;-81
2022/10/22 00:07:33;;;;;;;39.50;21.65;;;;;;;7.07;100.00;97931.80;1762657;81;20988;-80
2022/10/22 00:09:59;;;;;;;36.17;21.57;;;;;;;7.03;100.00;97929.89;1762849;81;20984;-81
2022/10/22 00:12:25;;;;;;;43.83;23.12;;;;;;;6.97;100.00;97919.61;1744976;82;20953;-81
2022/10/22 00:14:51;;;;;;;39.55;21.50;;;;;;;6.98;100.00;97919.06;1762916;81;20988;-79
2022/10/22 00:17:17;;;;;;;41.28;22.07;;;;;;;6.97;100.00;97922.30;1744925;82;21086;-79
2022/10/22 00:19:43;;;;;;;42.27;22.58;;;;;;;6.94;100.00;97922.83;1762975;81;20991;-81
2022/10/22 00:22:10;;;;;;;38.10;21.65;;;;;;;6.85;100.00;97916.84;1762745;81;21076;-79
2022/10/22 00:24:37;;;;;;;38.05;22.07;;;;;;;6.81;100.00;97930.52;1762696;81;21045;-81
2022/10/22 00:27:03;;;;;;;39.95;21.57;;;;;;;6.73;100.00;97911.07;1762623;81;21406;-78
2022/10/22 00:29:29;;;;;;;38.05;21.37;;;;;;;6.70;100.00;97910.78;1704992;82;21100;-80
2022/10/22 00:31:55;;;;;;;38.25;21.90;;;;;;;6.71;100.00;97904.33;1733796;81;21027;-80
2022/10/22 00:34:21;;;;;;;37.40;22.22;;;;;;;6.75;100.00;97906.77;1733840;81;20868;-81
2022/10/22 00:36:47;;;;;;;42.43;21.37;;;;;;;6.79;100.00;97901.16;1733836;82;20976;-82
2022/10/22 00:39:17;;;;;;;35.40;20.80;;;;;;;6.78;100.00;97897.66;1733797;81;21035;-80
2022/10/22 00:41:45;;;;;;;39.18;21.70;;;;;;;6.78;100.00;97898.19;1733909;82;21070;-79
2022/10/22 00:45:05;;;;;;;34.63;20.92;;;;;;;6.79;100.00;97897.93;1733617;82;20956;-78
2022/10/22 00:47:38;;;;;;;44.25;24.00;;;;;;;6.80;100.00;97898.73;1741508;81;21432;-80
2022/10/22 00:50:08;;;;;;;42.67;23.73;;;;;;;6.80;100.00;97900.09;1763084;81;21052;-79
2022/10/22 00:52:35;;;;;;;35.25;22.40;;;;;;;6.81;100.00;97904.41;1732581;81;21067;-79
2022/10/22 00:55:00;;;;;;;45.28;21.25;;;;;;;6.79;100.00;97907.89;1732202;81;22356;-81
2022/10/22 00:57:26;;;;;;;36.68;19.98;;;;;;;6.77;100.00;97908.16;1751989;81;20954;-80
2022/10/22 00:59:53;;;;;;;38.00;19.80;;;;;;;6.77;100.00;97914.08;1752404;81;21592;-79
2022/10/22 01:02:19;;;;;;;35.10;18.75;;;;;;;6.79;100.00;97902.50;1724182;81;21018;-79
2022/10/22 01:04:45;;;;;;;33.42;20.27;;;;;;;6.78;100.00;97904.92;1752449;81;20958;-81
2022/10/22 01:07:19;;;;;;;33.92;19.92;;;;;;;6.76;100.00;97915.96;1762322;81;21233;-81
2022/10/22 01:10:11;;;;;;;40.52;22.25;;;;;;;6.75;100.00;97913.00;1762602;81;21027;-79
2022/10/22 01:12:54;;;;;;;36.15;20.23;;;;;;;6.70;100.00;97918.33;1744782;82;21044;-80
2022/10/22 01:15:44;;;;;;;33.80;19.37;;;;;;;6.63;100.00;97920.95;1753867;81;21076;-81
2022/10/22 01:18:25;;;;;;;32.88;20.45;;;;;;;6.60;100.00;97916.09;1762600;81;21563;-81
2022/10/22 01:21:16;;;;;;;50.55;21.12;;;;;;;6.58;100.00;97904.74;1775420;80;21063;-79
2022/10/22 01:24:26;;;;;;;34.58;18.73;;;;;;;6.61;100.00;97910.98;1744877;82;21446;-79
2022/10/22 01:27:25;;;;;;;33.40;18.75;;;;;;;6.62;100.00;97912.60;1745089;81;20993;-82
2022/10/22 01:30:00;;;;;;;32.55;18.92;;;;;;;6.63;100.00;97908.30;1745154;82;21029;-79
2022/10/22 01:32:26;;;;;;;40.63;23.52;;;;;;;6.62;100.00;97910.72;1738402;82;21048;-80
2022/10/22 01:35:02;;;;;;;39.60;23.87;;;;;;;6.62;100.00;97913.95;1716026;82;21142;-79
2022/10/22 01:37:31;;;;;;;35.58;20.12;;;;;;;6.57;100.00;97909.85;1715240;82;21668;-81
2022/10/22 01:39:58;;;;;;;31.40;18.62;;;;;;;6.56;100.00;97903.66;1715948;82;21006;-80
2022/10/22 01:42:24;;;;;;;32.50;18.62;;;;;;;6.54;100.00;97907.15;1744899;81;21521;-81
2022/10/22 01:44:50;;;;;;;32.70;20.05;;;;;;;6.50;100.00;97889.36;1745177;82;20854;-80
2022/10/22 01:47:54;;;;;;;30.75;16.75;;;;;;;6.46;100.00;97888.77;1744841;82;21692;-80
2022/10/22 01:50:47;;;;;;;29.20;16.93;;;;;;;6.42;100.00;97880.41;1745092;82;20997;-78
2022/10/22 01:53:47;;;;;;;28.60;17.70;;;;;;;6.38;100.00;97876.59;1744911;81;20996;-79
2022/10/22 01:56:56;;;;;;;31.52;18.23;;;;;;;6.34;100.00;97880.06;1746965;82;21015;-81
2022/10/22 01:59:53;;;;;;;31.87;17.62;;;;;;;6.32;100.00;97878.95;1761082;81;21079;-78
2022/10/22 02:03:01;;;;;;;36.80;18.55;;;;;;;6.32;100.00;97886.21;1761095;81;22126;-80
2022/10/22 02:05:41;;;;;;;31.42;19.05;;;;;;;6.28;100.00;97881.08;1753876;81;21011;-78
2022/10/22 02:08:18;;;;;;;40.98;20.95;;;;;;;6.25;100.00;97874.87;1730733;82;21059;-78
2022/10/22 02:10:45;;;;;;;31.68;19.50;;;;;;;6.19;100.00;97875.34;1731117;82;21515;-79
2022/10/22 02:13:19;;;;;;;35.08;20.25;;;;;;;6.14;100.00;97876.09;1730781;82;21460;-80
2022/10/22 02:15:45;;;;;;;36.38;20.30;;;;;;;6.10;100.00;97876.34;1730089;82;21934;-81
2022/10/22 02:18:11;;;;;;;33.38;19.95;;;;;;;5.99;100.00;97875.16;1730722;82;21003;-79
2022/10/22 02:20:39;;;;;;;30.08;19.37;;;;;;;5.91;100.00;97868.34;1731299;82;21039;-79
2022/10/22 02:23:05;;;;;;;35.95;18.75;;;;;;;5.91;100.00;97871.03;1730781;82;21059;-81
2022/10/22 02:25:34;;;;;;;30.85;18.73;;;;;;;5.86;100.00;97882.50;1731235;82;20991;-78
2022/10/22 02:28:25;;;;;;;32.38;19.95;;;;;;;5.84;100.00;97896.75;1731035;82;21076;-81
2022/10/22 02:30:56;;;;;;;35.15;19.05;;;;;;;5.83;100.00;97887.59;1703484;82;21018;-80
2022/10/22 02:33:28;;;;;;;34.73;20.25;;;;;;;5.79;100.00;97887.27;1730999;82;21027;-79
2022/10/22 02:35:54;;;;;;;32.38;20.82;;;;;;;5.73;100.00;97878.88;1703398;82;21023;-81
2022/10/22 02:38:19;;;;;;;36.15;19.70;;;;;;;5.69;100.00;97887.16;1701737;82;21019;-80
2022/10/22 02:40:45;;;;;;;32.17;20.05;;;;;;;5.65;100.00;97884.70;1731193;82;21082;-81
2022/10/22 02:43:12;;;;;;;37.00;21.87;;;;;;;5.62;100.00;97879.80;1730609;82;38256;-79
2022/10/22 02:45:39;;;;;;;33.33;18.95;;;;;;;5.53;100.00;97878.09;1730809;82;21019;-79
2022/10/22 02:48:05;;;;;;;32.67;18.60;;;;;;;5.48;100.00;97881.27;1730917;82;20964;-78
2022/10/22 02:50:31;;;;;;;33.73;18.65;;;;;;;5.46;100.00;97877.99;1731205;82;21027;-79
2022/10/22 02:52:57;;;;;;;31.62;18.30;;;;;;;5.43;100.00;97878.50;1730915;82;21157;-79
2022/10/22 02:55:23;;;;;;;48.50;20.37;;;;;;;5.44;100.00;97886.31;1736538;81;20920;-82
2022/10/22 02:57:49;;;;;;;28.65;17.12;;;;;;;5.48;100.00;97885.30;1761298;81;20900;-80
2022/10/22 03:00:15;;;;;;;34.50;18.37;;;;;;;5.48;100.00;97880.73;1761294;81;20904;-80
2022/10/22 03:02:41;;;;;;;27.35;16.82;;;;;;;5.48;100.00;97876.70;1761301;81;21015;-80
2022/10/22 03:05:08;;;;;;;29.18;15.68;;;;;;;5.41;100.00;97873.38;1760922;81;21676;-80
2022/10/22 03:07:34;;;;;;;32.88;17.70;;;;;;;5.36;100.00;97878.15;1757591;81;21033;-79
2022/10/22 03:10:00;;;;;;;33.33;19.40;;;;;;;5.33;100.00;97885.38;1757961;81;22411;-79
2022/10/22 03:12:26;;;;;;;32.83;18.77;;;;;;;5.28;100.00;97900.08;1745594;82;20882;-80
2022/10/22 03:14:51;;;;;;;32.10;16.95;;;;;;;5.26;100.00;97908.11;1768558;81;21043;-81
2022/10/22 03:17:18;;;;;;;31.17;18.48;;;;;;;5.21;100.00;97910.21;1745690;82;21792;-80
2022/10/22 03:19:43;;;;;;;33.78;15.70;;;;;;;5.25;100.00;97912.67;1768523;81;20865;-78
2022/10/22 03:22:16;;;;;;;28.65;17.10;;;;;;;5.28;100.00;97909.48;1745278;82;21022;-79
2022/10/22 03:24:44;;;;;;;30.52;17.65;;;;;;;5.26;100.00;97908.92;1739524;81;21076;-81
2022/10/22 03:27:10;;;;;;;49.65;20.70;;;;;;;5.29;100.00;97914.32;1768325;81;21031;-79
2022/10/22 03:29:36;;;;;;;30.12;18.10;;;;;;;5.27;100.00;97907.86;1738051;81;21162;-79
2022/10/22 03:32:02;;;;;;;33.38;20.90;;;;;;;5.13;100.00;97905.26;1768431;81;20992;-79
2022/10/22 03:34:28;;;;;;;36.63;20.27;;;;;;;5.12;100.00;97910.86;1768659;81;21614;-79
2022/10/22 03:36:56;;;;;;;29.05;17.35;;;;;;;5.11;100.00;97911.38;1745734;81;20874;-80
2022/10/22 03:39:22;;;;;;;30.95;18.80;;;;;;;5.06;100.00;97904.09;1768402;81;21004;-78
2022/10/22 03:41:48;;;;;;;32.48;19.77;;;;;;;5.04;100.00;97896.81;1768684;81;21822;-81
2022/10/22 03:44:15;;;;;;;32.85;18.23;;;;;;;5.06;100.00;97898.71;1745463;82;21021;-80
2022/10/22 03:46:40;;;;;;;28.85;18.25;;;;;;;5.07;100.00;97894.16;1768587;81;21107;-80
2022/10/22 03:49:06;;;;;;;36.13;18.77;;;;;;;5.07;100.00;97878.84;1745521;82;20941;-81
2022/10/22 03:51:33;;;;;;;25.57;16.30;;;;;;;5.12;100.00;97871.91;1768804;81;21694;-79
2022/10/22 03:53:59;;;;;;;29.15;18.23;;;;;;;5.14;100.00;97865.78;1768319;81;21108;-80
2022/10/22 03:56:24;;;;;;;31.57;18.07;;;;;;;5.17;100.00;97863.92;1769055;81;20936;-80
2022/10/22 03:58:50;;;;;;;32.03;18.17;;;;;;;5.20;100.00;97856.70;1780045;80;21036;-81
2022/10/22 04:01:16;;;;;;;33.40;18.12;;;;;;;5.20;100.00;97860.73;1779762;79;20872;-81
2022/10/22 04:03:42;;;;;;;36.50;19.15;;;;;;;5.17;100.00;97866.62;1761030;81;21598;-80
2022/10/22 04:06:10;;;;;;;29.50;16.12;;;;;;;5.14;100.00;97867.13;1759397;81;21628;-80
2022/10/22 04:08:38;;;;;;;36.70;16.87;;;;;;;5.15;100.00;97858.00;1757691;81;21056;-80
2022/10/22 04:11:04;;;;;;;29.00;16.57;;;;;;;5.13;100.00;97848.02;1757685;81;21230;-81
2022/10/22 04:13:30;;;;;;;31.55;16.95;;;;;;;5.19;100.00;97851.86;1757537;81;20977;-80
2022/10/22 04:16:13;;;;;;;31.75;18.70;;;;;;;5.22;100.00;97851.92;1745639;82;21702;-79
2022/10/22 04:18:39;;;;;;;42.45;22.85;;;;;;;5.27;100.00;97856.00;1768365;81;21027;-80
2022/10/22 04:21:06;;;;;;;35.35;19.62;;;;;;;5.29;100.00;97858.70;1738189;81;20966;-79
2022/10/22 04:23:33;;;;;;;36.03;19.90;;;;;;;5.32;100.00;97860.91;1768054;81;21075;-80
2022/10/22 04:26:00;;;;;;;29.65;17.92;;;;;;;5.31;100.00;97852.58;1745675;82;21507;-78
2022/10/22 04:28:26;;;;;;;34.15;19.50;;;;;;;5.28;100.00;97853.59;1768317;81;21420;-78
2022/10/22 04:30:52;;;;;;;31.15;17.73;;;;;;;5.16;100.00;97855.59;1745575;82;20965;-81
2022/10/22 04:33:18;;;;;;;32.40;19.65;;;;;;;5.07;100.00;97860.05;1768311;81;21553;-80
2022/10/22 04:35:44;;;;;;;31.33;18.30;;;;;;;5.01;100.00;97861.56;1745811;82;20917;-78
2022/10/22 04:38:10;;;;;;;29.92;18.80;;;;;;;4.97;100.00;97875.22;1768173;81;21325;-80
2022/10/22 04:40:36;;;;;;;31.77;16.97;;;;;;;4.95;100.00;97867.37;1768700;81;20989;-80
2022/10/22 04:43:02;;;;;;;35.45;20.57;;;;;;;4.91;100.00;97861.42;1745515;82;21756;-78
2022/10/22 04:45:28;;;;;;;33.13;19.42;;;;;;;4.83;100.00;97861.31;1768403;81;21199;-78
2022/10/22 04:47:54;;;;;;;36.73;20.15;;;;;;;4.77;100.00;97862.28;1745671;82;20980;-78
2022/10/22 04:50:20;;;;;;;35.10;19.48;;;;;;;4.75;100.00;97871.94;1768565;81;20881;-80
2022/10/22 04:52:46;;;;;;;36.03;20.52;;;;;;;4.77;100.00;97876.52;1745544;82;20894;-81
2022/10/22 04:55:11;;;;;;;40.50;20.15;;;;;;;4.77;100.00;97877.05;1767786;81;21134;-79
2022/10/22 04:57:37;;;;;;;34.67;19.42;;;;;;;4.76;100.00;97881.61;1731943;81;20848;-78
2022/10/22 05:00:05;;;;;;;37.95;20.97;;;;;;;4.75;100.00;97887.23;1751080;82;20957;-78
2022/10/22 05:02:31;;;;;;;37.95;20.20;;;;;;;4.69;100.00;97880.14;1732150;81;21524;-78
2022/10/22 05:04:57;;;;;;;40.70;20.20;;;;;;;4.67;100.00;97887.11;1751863;81;20905;-80
2022/10/22 05:07:22;;;;;;;64.50;47.95;;;;;;;4.66;100.00;97888.17;1750450;82;21890;-79
2022/10/22 05:09:49;;;;;;;38.45;23.80;;;;;;;4.68;100.00;97891.41;1771281;81;20885;-78
2022/10/22 05:12:14;;;;;;;37.20;20.62;;;;;;;4.70;100.00;97899.22;1771073;81;21417;-78
2022/10/22 05:14:40;;;;;;;37.10;22.15;;;;;;;4.74;100.00;97907.89;1750380;82;20980;-79
2022/10/22 05:17:06;;;;;;;35.48;21.42;;;;;;;4.75;100.00;97906.83;1771133;81;20959;-78
2022/10/22 05:19:32;;;;;;;36.58;18.30;;;;;;;4.72;100.00;97897.94;1750619;82;21153;-78
2022/10/22 05:22:00;;;;;;;33.20;19.20;;;;;;;4.73;100.00;97887.48;1770958;81;21000;-81
2022/10/22 05:24:27;;;;;;;34.78;18.35;;;;;;;4.76;100.00;97887.51;1771534;81;21024;-78
2022/10/22 05:26:54;;;;;;;34.05;19.30;;;;;;;4.70;100.00;97881.77;1771122;81;21063;-80
2022/10/22 05:29:20;;;;;;;34.55;18.02;;;;;;;4.64;100.00;97890.29;1750191;82;21072;-80
2022/10/22 05:31:46;;;;;;;39.05;18.02;;;;;;;4.65;100.00;97890.57;1771229;81;21158;-79
2022/10/22 05:34:12;;;;;;;30.62;17.55;;;;;;;4.70;100.00;97890.66;1750181;82;20921;-80
2022/10/22 05:36:38;;;;;;;35.23;18.40;;;;;;;4.77;100.00;97891.81;1771199;81;20983;-80
2022/10/22 05:39:04;;;;;;;32.17;17.75;;;;;;;4.85;100.00;97894.62;1750381;82;20884;-81
2022/10/22 05:41:31;;;;;;;37.30;21.85;;;;;;;4.88;100.00;97894.15;1771188;81;20996;-78
2022/10/22 05:43:58;;;;;;;39.03;20.17;;;;;;;4.89;100.00;97887.19;1770800;81;21898;-80
2022/10/22 05:46:26;;;;;;;33.65;21.65;;;;;;;4.91;100.00;97887.74;1771122;81;21532;-78
2022/10/22 05:48:58;;;;;;;36.28;20.02;;;;;;;4.91;100.00;97883.72;1771223;81;21000;-81
2022/10/22 05:51:26;;;;;;;32.03;19.57;;;;;;;4.95;100.00;97875.97;1771055;81;21019;-79
2022/10/22 05:53:55;;;;;;;32.17;19.17;;;;;;;4.94;100.00;97885.89;1770832;81;21027;-81
2022/10/22 05:56:21;;;;;;;30.43;18.05;;;;;;;4.97;100.00;97897.51;1751694;81;21302;-81
2022/10/22 05:58:47;;;;;;;33.20;20.12;;;;;;;4.97;100.00;97896.16;1752090;81;20898;-79
2022/10/22 06:01:18;;;;;;;37.35;20.15;;;;;;;4.99;100.00;97905.31;1752347;81;20965;-78
2022/10/22 06:03:45;;;;;;;32.38;18.85;;;;;;;5.00;100.00;97915.80;1751860;81;20987;-79
2022/10/22 06:06:36;;;;;;;33.90;20.08;;;;;;;5.06;100.00;97916.70;1748108;81;21032;-80
2022/10/22 06:09:14;;;;;;;38.75;21.20;;;;;;;5.07;100.00;97923.70;1754793;81;21153;-79
2022/10/22 06:11:40;;;;;;;35.98;18.98;;;;;;;5.08;100.00;97920.76;1762255;81;21057;-80
2022/10/22 06:14:06;;;;;;;42.38;22.37;;;;;;;5.06;100.00;97913.48;1744676;82;21111;-78
2022/10/22 06:16:32;;;;;;;36.13;21.70;;;;;;;5.04;100.00;97903.53;1762705;81;20941;-79
2022/10/22 06:19:00;;;;;;;39.00;21.70;;;;;;;5.08;100.00;97897.12;1744779;82;20972;-79
2022/10/22 06:21:26;;;;;;;32.73;20.25;;;;;;;5.13;100.00;97897.70;1762853;81;21837;-80
2022/10/22 06:23:55;;;;;;;32.88;19.32;;;;;;;5.19;100.00;97892.69;1744739;82;21020;-80
2022/10/22 06:26:21;;;;;;;33.10;18.75;;;;;;;5.29;100.00;97890.95;1762948;81;21051;-78
2022/10/22 06:28:47;;;;;;;34.73;20.00;;;;;;;5.42;100.00;97888.98;1744746;82;20944;-78
2022/10/22 06:31:13;;;;;;;34.08;19.55;;;;;;;5.57;100.00;97912.02;1762678;81;21641;-80
2022/10/22 06:33:42;;;;;;;34.10;19.98;;;;;;;5.73;100.00;97908.98;1762392;81;21140;-79
2022/10/22 06:36:12;;;;;;;34.15;21.70;;;;;;;5.91;100.00;97909.50;1762673;81;21064;-79
2022/10/22 06:38:38;;;;;;;38.08;20.30;;;;;;;6.07;100.00;97913.17;1762332;81;20989;-80
2022/10/22 06:41:07;;;;;;;32.23;20.25;;;;;;;6.22;100.00;97903.89;1762663;81;21499;-81
2022/10/22 06:43:33;;;;;;;46.70;25.02;;;;;;;6.41;100.00;97909.74;1744763;81;21049;-81
2022/10/22 06:46:06;;;;;;;47.05;28.98;;;;;;;6.67;100.00;97916.16;1762432;81;21031;-79
2022/10/22 06:48:32;;;;;;;36.08;24.72;;;;;;;6.75;100.00;97915.69;1762262;81;21008;-81
2022/10/22 06:51:03;;;;;;;40.08;25.88;;;;;;;6.92;100.00;97926.83;1762509;81;21512;-79
2022/10/22 06:53:29;;;;;;;36.98;21.33;;;;;;;7.03;100.00;97932.05;1761631;81;20996;-79
2022/10/22 06:55:55;;;;;;;35.75;21.60;;;;;;;7.16;100.00;97942.09;1747769;81;21472;-78
2022/10/22 06:58:21;;;;;;;43.45;27.67;;;;;;;7.28;100.00;97941.38;1736361;81;21161;-80
2022/10/22 07:00:47;;;;;;;39.45;23.65;;;;;;;7.32;100.00;97942.47;1756067;81;20919;-80
2022/10/22 07:03:13;;;;;;;38.60;20.25;;;;;;;7.32;100.00;97938.42;1758586;81;20955;-78
2022/10/22 07:05:40;;;;;;;32.42;19.30;;;;;;;7.37;100.00;97943.05;1743668;81;21024;-80
2022/10/22 07:08:05;;;;;;;30.00;17.40;;;;;;;7.54;100.00;97943.15;1762383;81;21008;-81
2022/10/22 07:10:31;;;;;;;31.45;18.17;;;;;;;7.60;100.00;97943.42;1744981;82;21622;-78
2022/10/22 07:12:57;;;;;;;30.68;17.32;;;;;;;7.71;100.00;97944.31;1755422;81;20954;-81
2022/10/22 07:15:23;;;;;;;29.48;18.30;;;;;;;7.82;100.00;97925.73;1752175;81;20989;-81
2022/10/22 07:17:50;;;;;;;29.75;18.17;;;;;;;7.93;100.00;97930.09;1752024;81;21617;-79
2022/10/22 07:20:19;;;;;;;26.15;15.30;;;;;;;8.05;100.00;97932.58;1752001;81;21374;-79
2022/10/22 07:22:45;;;;;;;;;;;;;;;8.34;100.00;97938.30;1754639;81;21054;-80
2022/10/22 07:25:11;;;;;;;21.52;12.73;;;;;;;8.60;100.00;97931.08;1750505;81;20182;-81
2022/10/22 07:27:37;;;;;;;23.65;15.15;;;;;;;8.84;100.00;97932.72;1747468;81;20920;-79
2022/10/22 07:30:04;;;;;;;20.60;13.72;;;;;;;9.10;100.00;97933.52;1749899;81;21394;-81
2022/10/22 07:32:30;;;;;;;30.48;17.23;;;;;;;9.34;100.00;97935.11;1764286;81;21027;-79
2022/10/22 07:34:56;;;;;;;27.48;16.87;;;;;;;9.53;100.00;97940.20;1761891;81;21265;-81
2022/10/22 07:37:22;;;;;;;27.95;15.23;;;;;;;9.68;100.00;97936.65;1755291;81;20972;-81
2022/10/22 07:39:48;;;;;;;38.67;24.55;;;;;;;9.80;100.00;97916.03;1737808;81;20860;-79
2022/10/22 07:42:14;;;;;;;38.30;22.80;;;;;;;9.92;100.00;97917.08;1733887;82;21066;-81
2022/10/22 07:44:40;;;;;;;32.35;22.07;;;;;;;10.01;100.00;97935.17;1733653;82;21050;-79
2022/10/22 07:47:06;;;;;;;33.28;20.68;;;;;;;10.10;100.00;97933.50;1734031;82;22005;-81
2022/10/22 07:49:32;;;;;;;43.20;19.35;;;;;;;10.19;100.00;97926.95;1733504;82;20860;-79
2022/10/22 07:51:57;;;;;;;32.33;18.00;;;;;;;10.30;100.00;97929.09;1738160;81;20982;-81
2022/10/22 07:54:23;;;;;;;28.52;16.85;;;;;;;10.41;100.00;97937.41;1733483;82;20900;-79
2022/10/22 07:56:49;;;;;;;37.45;20.92;;;;;;;10.56;100.00;97922.41;1733845;82;21023;-81
2022/10/22 07:59:15;;;;;;;39.98;19.98;;;;;;;10.62;100.00;97929.42;1733741;82;21538;-80
2022/10/22 08:01:41;;;;;;;29.05;18.10;;;;;;;10.68;100.00;97932.38;1733756;82;21621;-81
2022/10/22 08:04:08;;;;;;;27.30;16.40;;;;;;;10.80;100.00;97928.48;1753694;81;20908;-79
2022/10/22 08:06:35;;;;;;;31.80;17.50;;;;;;;10.86;100.00;97928.72;1742598;81;21451;-81
2022/10/22 08:09:01;;;;;;;36.10;21.85;;;;;;;10.88;100.00;97920.55;1733559;82;21035;-79
2022/10/22 08:11:27;;;;;;;29.25;16.48;;;;;;;11.00;100.00;97916.11;1733853;82;21413;-81
2022/10/22 08:13:52;;;;;;;33.73;17.67;;;;;;;11.12;100.00;97917.10;1733538;82;20896;-81
2022/10/22 08:16:18;;;;;;;32.45;18.35;;;;;;;11.21;100.00;97932.47;1733975;82;20915;-82
2022/10/22 08:18:44;;;;;;;24.12;15.65;;;;;;;11.34;100.00;97945.08;1733496;82;21366;-81
2022/10/22 08:21:11;;;;;;;29.30;15.78;;;;;;;11.46;100.00;97944.98;1733836;82;21054;-79
2022/10/22 08:23:37;;;;;;;24.37;15.85;;;;;;;11.61;100.00;97954.84;1733629;82;21063;-82
2022/10/22 08:26:04;;;;;;;66.95;43.80;;;;;;;11.71;100.00;97948.52;1733851;82;21565;-80
2022/10/22 08:28:31;;;;;;;35.08;23.80;;;;;;;11.85;100.00;97942.12;1733645;82;21098;-81
2022/10/22 08:30:59;;;;;;;28.92;17.07;;;;;;;11.92;100.00;97947.75;1754444;81;21107;-80
2022/10/22 08:33:25;;;;;;;26.82;18.65;;;;;;;11.91;100.00;97946.95;1761175;81;21570;-79
2022/10/22 08:35:51;;;;;;;30.55;20.25;;;;;;;11.97;100.00;97951.23;1764257;81;21139;-79
2022/10/22 08:38:17;;;;;;;25.10;16.97;;;;;;;11.99;100.00;97960.44;1764236;80;21688;-79
2022/10/22 08:40:43;;;;;;;24.65;14.43;;;;;;;12.05;100.00;97960.64;1764274;81;21011;-82
2022/10/22 08:43:35;;;;;;;32.67;19.73;;;;;;;12.04;99.40;97963.08;1764261;81;21022;-80
2022/10/22 08:46:33;;;;;;;44.83;28.80;;;;;;;11.99;99.39;97963.96;1764509;81;21448;-81
2022/10/22 08:49:00;;;;;;;28.55;17.95;;;;;;;11.98;100.00;97963.70;1738757;81;21664;-82
2022/10/22 08:51:33;;;;;;;36.98;19.85;;;;;;;11.95;98.99;97968.89;1733617;82;21023;-79
2022/10/22 08:54:45;;;;;;;38.75;24.25;;;;;;;11.96;99.68;97976.73;1738155;81;21437;-81
2022/10/22 08:57:33;;;;;;;27.95;14.30;;;;;;;11.96;100.00;97976.73;1757316;81;21074;-81
2022/10/22 09:00:15;;;;;;;25.13;15.80;;;;;;;11.98;99.06;97963.70;1764139;81;21019;-79
2022/10/22 09:03:07;;;;;;;30.65;17.02;;;;;;;11.99;98.12;97957.72;1759424;81;22108;-82
2022/10/22 09:05:41;;;;;;;33.45;20.88;;;;;;;12.01;97.99;97954.16;1763589;81;21000;-79
2022/10/22 09:08:11;;;;;;;32.23;18.37;;;;;;;12.05;98.04;97953.30;1762530;81;21016;-79
2022/10/22 09:10:37;;;;;;;30.40;21.05;;;;;;;12.11;98.35;97956.19;1756652;81;21462;-80
2022/10/22 09:13:03;;;;;;;35.13;23.00;;;;;;;12.18;97.79;97959.11;1721830;81;21055;-79
2022/10/22 09:15:30;;;;;;;35.10;21.50;;;;;;;12.22;97.50;97961.48;1740531;81;21609;-82
2022/10/22 09:18:20;;;;;;;41.02;25.48;;;;;;;12.31;97.65;97965.20;1733709;82;21516;-79
2022/10/22 09:20:53;;;;;;;30.27;19.65;;;;;;;12.37;97.54;97954.50;1733774;82;21063;-82
2022/10/22 09:24:02;;;;;;;28.67;19.12;;;;;;;12.41;97.76;97947.39;1704596;82;22073;-79
2022/10/22 09:26:28;;;;;;;;;;;;;;;12.49;98.03;97931.80;1759439;81;21003;-82
2022/10/22 09:28:53;;;;;;;39.48;23.25;;;;;;;12.58;97.35;97934.66;1752346;81;21092;-83
2022/10/22 09:31:19;;;;;;;30.02;21.20;;;;;;;12.70;97.14;97943.97;1734268;81;21030;-81
2022/10/22 09:33:47;;;;;;;32.78;22.58;;;;;;;12.80;95.94;97943.00;1764006;81;20885;-82
2022/10/22 09:36:20;;;;;;;33.25;24.65;;;;;;;12.86;95.35;97943.73;1730610;81;21595;-79
2022/10/22 09:38:49;;;;;;;33.42;20.10;;;;;;;12.95;95.86;97935.96;1764023;81;21487;-81
2022/10/22 09:41:15;;;;;;;31.12;17.27;;;;;;;13.04;95.70;97935.28;1764233;81;21126;-82
2022/10/22 09:43:41;;;;;;;22.77;12.10;;;;;;;13.07;94.62;97939.56;1734008;81;20873;-79
2022/10/22 09:46:11;;;;;;;21.48;13.95;;;;;;;13.16;94.85;97939.17;1764672;81;20908;-79
2022/10/22 09:48:42;;;;;;;18.30;12.98;;;;;;;13.20;94.14;97938.84;1734383;81;21075;-82
2022/10/22 09:51:22;;;;;;;26.40;16.95;;;;;;;13.23;94.83;97935.52;1764520;81;21479;-82
2022/10/22 09:53:57;;;;;;;20.97;14.30;;;;;;;13.24;92.74;97927.63;1764067;80;21776;-82
2022/10/22 09:56:36;;;;;;;24.02;14.07;;;;;;;13.32;93.97;97937.00;1739210;81;20991;-80
2022/10/22 09:59:02;;;;;;;35.23;16.95;;;;;;;13.38;93.87;97938.53;1733655;82;21079;-80
2022/10/22 10:01:32;;;;;;;31.25;20.08;;;;;;;13.42;93.29;97925.95;1705098;82;20951;-82
2022/10/22 10:04:07;;;;;;;78.97;53.78;;;;;;;13.45;92.41;97927.26;1704612;82;21030;-81
2022/10/22 10:06:34;;;;;;;95.07;62.58;;;;;;;13.46;91.45;97932.39;1755151;81;21149;-80
2022/10/22 10:09:02;;;;;;;54.80;30.17;;;;;;;13.51;91.79;97936.95;1734101;81;20991;-81
2022/10/22 10:11:45;;;;;;;26.20;16.33;;;;;;;13.61;90.92;97946.84;1764563;81;21473;-80
2022/10/22 10:14:28;;;;;;;29.98;15.15;;;;;;;13.55;90.87;97942.84;1763949;81;20995;-80
2022/10/22 10:17:05;;;;;;;28.47;16.48;;;;;;;13.57;91.07;97941.73;1764008;81;21050;-81
2022/10/22 10:20:00;;;;;;;22.10;15.18;;;;;;;13.55;90.86;97944.76;1735612;81;21153;-82
2022/10/22 10:22:50;;;;;;;23.27;13.98;;;;;;;13.52;90.27;97936.64;1656202;85;21016;-79
2022/10/22 10:25:59;;;;;;;25.92;14.23;;;;;;;13.49;91.52;97937.78;1722826;82;20995;-82
2022/10/22 10:28:56;;;;;;;26.42;14.87;;;;;;;13.51;91.50;97942.39;1733727;82;21604;-79
2022/10/22 10:31:47;;;;;;;26.77;15.28;;;;;;;13.49;91.62;97944.03;1733339;82;21011;-82
2022/10/22 10:34:22;;;;;;;26.68;18.55;;;;;;;13.47;92.16;97944.89;1733520;82;21063;-80
2022/10/22 10:37:31;;;;;;;54.85;29.95;;;;;;;13.51;90.87;97946.48;1708308;82;21047;-82
2022/10/22 10:40:44;;;;;;;37.80;22.48;;;;;;;13.48;90.03;97940.25;1744797;81;20995;-82
2022/10/22 10:43:22;;;;;;;79.77;40.67;;;;;;;13.40;90.32;97942.30;1755170;81;21069;-80
2022/10/22 10:46:13;;;;;;;32.95;18.92;;;;;;;13.33;91.36;97941.36;1738544;81;21019;-81
2022/10/22 10:48:55;;;;;;;28.73;19.10;;;;;;;13.36;91.12;97939.95;1743541;81;21064;-81
2022/10/22 10:51:29;;;;;;;24.47;16.50;;;;;;;13.37;91.47;97942.91;1747600;81;21019;-80
2022/10/22 10:54:04;;;;;;;58.28;32.03;;;;;;;13.36;92.08;97945.39;1749715;81;21023;-79
2022/10/22 10:56:57;;;;;;;30.97;19.90;;;;;;;13.35;92.33;97940.50;1748398;81;21086;-80
2022/10/22 10:59:50;;;;;;;31.48;18.27;;;;;;;13.32;93.01;97937.00;1749005;81;21023;-80
2022/10/22 11:02:55;;;;;;;37.15;19.40;;;;;;;13.33;93.54;97944.08;1732008;82;21071;-82
2022/10/22 11:05:37;;;;;;;28.87;18.20;;;;;;;13.35;94.07;97944.58;1739024;81;20988;-82
2022/10/22 11:08:24;;;;;;;38.10;22.30;;;;;;;13.31;94.73;97948.99;1764238;81;21015;-79
2022/10/22 11:11:14;;;;;;;30.75;18.95;;;;;;;13.30;94.88;97948.74;1749202;81;21019;-79
2022/10/22 11:13:57;;;;;;;37.40;20.30;;;;;;;13.25;94.99;97947.48;1764119;81;21050;-79
2022/10/22 11:16:35;;;;;;;43.60;30.23;;;;;;;13.20;95.46;97933.40;1763493;81;21696;-82
2022/10/22 11:19:13;;;;;;;48.52;29.30;;;;;;;13.15;95.82;97936.16;1762567;81;21444;-82
2022/10/22 11:21:43;;;;;;;74.15;37.73;;;;;;;13.14;95.71;97928.31;1762627;81;22115;-79
2022/10/22 11:24:18;;;;;;;38.50;23.22;;;;;;;13.12;95.99;97931.89;1763786;81;21074;-79
2022/10/22 11:26:49;;;;;;;80.87;47.15;;;;;;;13.11;96.07;97927.00;1764331;80;21055;-80
2022/10/22 11:29:24;;;;;;;72.15;44.25;;;;;;;13.08;96.23;97930.88;1764250;81;21102;-79
2022/10/22 11:31:51;;;;;;;65.72;42.03;;;;;;;13.01;96.33;97929.09;1764119;81;20999;-79
2022/10/22 11:34:40;;;;;;;65.78;43.10;;;;;;;12.97;96.96;97922.06;1764005;81;21054;-79
2022/10/22 11:37:06;;;;;;;152.32;113.75;;;;;;;12.85;97.76;97919.81;1764093;80;20984;-79